Pagrindinis puslapis
METAR-TAF:

METAR-TAF

Oro uostai :

Biak, Indonezija

platuma: 01-11S, ilguma: 136-07E, Aukštis: 11 m

Dabartinis oras

Ataskaita buvo paskelbta 20 valandos ir 14 minutes, ne 23:30 UTC
Vėjas 2 kt nuo kintamojo kryptimis
Temperatūra 26°C
Drėgmė 89%
Slėgis 1010 hPa
Matomumas: 9000 m
Išsisklaidę debesys ne aukštis 1800 ft
Apsiniaukę ne aukštis 10000 ft
lietus

METAR: WABB 242330Z VRB02KT 9000 -RA SCT018 OVC100 26/24 Q1010

Laikas: 02:44 (19:44 UTC)

Prognozė

Ataskaita buvo paskelbta 2 valandos ir 44 minutes, ne 17:00 UTC
Prognozė galioja nuo 25 metu 18 UTC su 27 metu 00 UTC
Vėjas kt iš Šiaurės
Matomumas 10 km arba daugiau
Išsisklaidę debesys ne aukštis 1800 ft
Tapsmas
nuo 25 metu 22 UTC su 26 metu 00 UTC
Vėjas 5 kt iš Vakarų/Pietvakarių

TAF: WABB 251700Z 2518/2700 00000KT 9999 SCT018 BECMG 2522/2600 25005KT

Orai ataskaitas ir orų prognozės (METAR, TAF).

turimą stotys yra geltonos ir raudonos taškus žemėlapyje.

Perkelti pele per norėdami pamatyti stoties vardą.

Tada spustelėkite, norėdami matyti oro stebėjimo ir prognozės.

Norėdami pakeisti žemėlapį: spustelėkite ant žalios mygtukų su juodo kryžiaus žemyn,; žalią mygtuką su brūkšneliu, jei norite nutolinti; arba žalių rodyklių gretimoms žemėlapius.


METAR-TAF: